sensor_id;sensor_type;location;lat;lon;timestamp;P1;durP1;ratioP1;P2;durP2;ratioP2
21862;SDS011;11096;51.338;12.524;2023-04-24T00:00:42;4.32;;;2.40;;
21862;SDS011;11096;51.338;12.524;2023-04-24T00:03:10;3.63;;;2.20;;
21862;SDS011;11096;51.338;12.524;2023-04-24T00:05:36;3.42;;;2.35;;
21862;SDS011;11096;51.338;12.524;2023-04-24T00:08:01;2.65;;;1.67;;
21862;SDS011;11096;51.338;12.524;2023-04-24T00:10:27;3.05;;;1.92;;
21862;SDS011;11096;51.338;12.524;2023-04-24T00:12:52;2.22;;;1.70;;
21862;SDS011;11096;51.338;12.524;2023-04-24T00:15:18;3.15;;;1.70;;
21862;SDS011;11096;51.338;12.524;2023-04-24T00:17:43;2.72;;;1.80;;
21862;SDS011;11096;51.338;12.524;2023-04-24T00:20:09;1.73;;;1.60;;
21862;SDS011;11096;51.338;12.524;2023-04-24T00:22:35;2.35;;;1.45;;
21862;SDS011;11096;51.338;12.524;2023-04-24T00:25:01;2.55;;;1.55;;
21862;SDS011;11096;51.338;12.524;2023-04-24T00:27:26;1.40;;;1.30;;
21862;SDS011;11096;51.338;12.524;2023-04-24T00:29:51;1.40;;;1.30;;
21862;SDS011;11096;51.338;12.524;2023-04-24T00:32:17;2.10;;;1.40;;
21862;SDS011;11096;51.338;12.524;2023-04-24T00:34:42;1.30;;;1.20;;
21862;SDS011;11096;51.338;12.524;2023-04-24T00:37:08;1.65;;;1.25;;
21862;SDS011;11096;51.338;12.524;2023-04-24T00:39:33;1.77;;;1.10;;
21862;SDS011;11096;51.338;12.524;2023-04-24T00:41:59;3.25;;;1.10;;
21862;SDS011;11096;51.338;12.524;2023-04-24T00:44:24;1.30;;;1.20;;
21862;SDS011;11096;51.338;12.524;2023-04-24T00:46:50;1.40;;;1.27;;
21862;SDS011;11096;51.338;12.524;2023-04-24T00:49:17;1.35;;;1.00;;
21862;SDS011;11096;51.338;12.524;2023-04-24T00:51:43;2.30;;;1.50;;
21862;SDS011;11096;51.338;12.524;2023-04-24T00:54:11;1.70;;;1.20;;
21862;SDS011;11096;51.338;12.524;2023-04-24T00:56:37;1.95;;;1.33;;
21862;SDS011;11096;51.338;12.524;2023-04-24T00:59:02;1.70;;;1.25;;
21862;SDS011;11096;51.338;12.524;2023-04-24T01:01:29;4.25;;;1.35;;
21862;SDS011;11096;51.338;12.524;2023-04-24T01:03:55;1.98;;;1.77;;
21862;SDS011;11096;51.338;12.524;2023-04-24T01:06:22;5.03;;;1.50;;
21862;SDS011;11096;51.338;12.524;2023-04-24T01:08:52;2.15;;;1.42;;
21862;SDS011;11096;51.338;12.524;2023-04-24T01:11:18;2.67;;;1.52;;
21862;SDS011;11096;51.338;12.524;2023-04-24T01:13:44;4.35;;;1.40;;
21862;SDS011;11096;51.338;12.524;2023-04-24T01:16:10;3.47;;;1.42;;
21862;SDS011;11096;51.338;12.524;2023-04-24T01:18:35;2.13;;;1.52;;
21862;SDS011;11096;51.338;12.524;2023-04-24T01:21:02;2.55;;;1.30;;
21862;SDS011;11096;51.338;12.524;2023-04-24T01:23:29;2.13;;;1.63;;
21862;SDS011;11096;51.338;12.524;2023-04-24T01:25:55;3.30;;;1.48;;
21862;SDS011;11096;51.338;12.524;2023-04-24T01:28:21;3.38;;;1.48;;
21862;SDS011;11096;51.338;12.524;2023-04-24T01:30:47;2.58;;;1.70;;
21862;SDS011;11096;51.338;12.524;2023-04-24T01:33:12;2.00;;;1.60;;
21862;SDS011;11096;51.338;12.524;2023-04-24T01:35:38;2.08;;;1.48;;
21862;SDS011;11096;51.338;12.524;2023-04-24T01:38:04;3.30;;;1.45;;
21862;SDS011;11096;51.338;12.524;2023-04-24T01:40:30;1.88;;;1.40;;
21862;SDS011;11096;51.338;12.524;2023-04-24T01:42:56;2.10;;;1.40;;
21862;SDS011;11096;51.338;12.524;2023-04-24T01:45:23;2.42;;;1.30;;
21862;SDS011;11096;51.338;12.524;2023-04-24T01:47:48;2.65;;;1.60;;
21862;SDS011;11096;51.338;12.524;2023-04-24T01:50:15;1.35;;;1.17;;
21862;SDS011;11096;51.338;12.524;2023-04-24T01:52:41;1.67;;;1.20;;
21862;SDS011;11096;51.338;12.524;2023-04-24T01:55:07;5.15;;;1.30;;
21862;SDS011;11096;51.338;12.524;2023-04-24T01:57:32;1.48;;;1.30;;
21862;SDS011;11096;51.338;12.524;2023-04-24T01:59:59;3.90;;;1.23;;
21862;SDS011;11096;51.338;12.524;2023-04-24T02:02:24;1.50;;;1.27;;
21862;SDS011;11096;51.338;12.524;2023-04-24T02:04:52;2.60;;;1.30;;
21862;SDS011;11096;51.338;12.524;2023-04-24T02:07:18;5.35;;;1.25;;
21862;SDS011;11096;51.338;12.524;2023-04-24T02:09:44;3.55;;;1.30;;
21862;SDS011;11096;51.338;12.524;2023-04-24T02:12:09;3.40;;;1.17;;
21862;SDS011;11096;51.338;12.524;2023-04-24T02:14:35;4.35;;;1.70;;
21862;SDS011;11096;51.338;12.524;2023-04-24T02:17:00;3.20;;;1.50;;
21862;SDS011;11096;51.338;12.524;2023-04-24T02:19:26;1.45;;;1.30;;
21862;SDS011;11096;51.338;12.524;2023-04-24T02:21:51;1.95;;;1.30;;
21862;SDS011;11096;51.338;12.524;2023-04-24T02:24:16;3.17;;;1.55;;
21862;SDS011;11096;51.338;12.524;2023-04-24T02:26:42;4.38;;;1.10;;
21862;SDS011;11096;51.338;12.524;2023-04-24T02:29:07;2.92;;;1.38;;
21862;SDS011;11096;51.338;12.524;2023-04-24T02:31:33;1.73;;;1.25;;
21862;SDS011;11096;51.338;12.524;2023-04-24T02:33:58;2.72;;;1.60;;
21862;SDS011;11096;51.338;12.524;2023-04-24T02:36:24;2.47;;;1.48;;
21862;SDS011;11096;51.338;12.524;2023-04-24T02:38:50;1.50;;;1.40;;
21862;SDS011;11096;51.338;12.524;2023-04-24T02:41:15;4.55;;;1.27;;
21862;SDS011;11096;51.338;12.524;2023-04-24T02:43:41;3.17;;;1.52;;
21862;SDS011;11096;51.338;12.524;2023-04-24T02:46:06;2.13;;;1.83;;
21862;SDS011;11096;51.338;12.524;2023-04-24T02:48:31;2.80;;;1.67;;
21862;SDS011;11096;51.338;12.524;2023-04-24T02:50:57;2.50;;;1.70;;
21862;SDS011;11096;51.338;12.524;2023-04-24T02:53:23;1.75;;;1.60;;
21862;SDS011;11096;51.338;12.524;2023-04-24T02:55:48;3.78;;;1.67;;
21862;SDS011;11096;51.338;12.524;2023-04-24T02:58:14;3.60;;;1.77;;
21862;SDS011;11096;51.338;12.524;2023-04-24T03:00:39;1.63;;;1.42;;
21862;SDS011;11096;51.338;12.524;2023-04-24T03:03:05;1.80;;;1.70;;
21862;SDS011;11096;51.338;12.524;2023-04-24T03:05:31;1.73;;;1.48;;
21862;SDS011;11096;51.338;12.524;2023-04-24T03:07:57;2.40;;;1.80;;
21862;SDS011;11096;51.338;12.524;2023-04-24T03:10:22;1.50;;;1.40;;
21862;SDS011;11096;51.338;12.524;2023-04-24T03:12:48;2.35;;;1.90;;
21862;SDS011;11096;51.338;12.524;2023-04-24T03:15:15;1.80;;;1.45;;
21862;SDS011;11096;51.338;12.524;2023-04-24T03:17:40;1.85;;;1.55;;
21862;SDS011;11096;51.338;12.524;2023-04-24T03:20:06;1.63;;;1.30;;
21862;SDS011;11096;51.338;12.524;2023-04-24T03:22:34;2.70;;;2.08;;
21862;SDS011;11096;51.338;12.524;2023-04-24T03:25:00;2.35;;;1.88;;
21862;SDS011;11096;51.338;12.524;2023-04-24T03:27:25;3.22;;;1.60;;
21862;SDS011;11096;51.338;12.524;2023-04-24T03:29:51;3.30;;;1.58;;
21862;SDS011;11096;51.338;12.524;2023-04-24T03:32:20;2.53;;;1.70;;
21862;SDS011;11096;51.338;12.524;2023-04-24T03:34:48;2.72;;;1.67;;
21862;SDS011;11096;51.338;12.524;2023-04-24T03:37:15;1.85;;;1.50;;
21862;SDS011;11096;51.338;12.524;2023-04-24T03:39:41;1.98;;;1.58;;
21862;SDS011;11096;51.338;12.524;2023-04-24T03:42:06;2.70;;;1.42;;
21862;SDS011;11096;51.338;12.524;2023-04-24T03:44:33;4.18;;;1.77;;
21862;SDS011;11096;51.338;12.524;2023-04-24T03:46:59;2.17;;;1.60;;
21862;SDS011;11096;51.338;12.524;2023-04-24T03:49:25;2.30;;;1.52;;
21862;SDS011;11096;51.338;12.524;2023-04-24T03:51:50;4.45;;;1.60;;
21862;SDS011;11096;51.338;12.524;2023-04-24T03:54:17;2.25;;;1.40;;
21862;SDS011;11096;51.338;12.524;2023-04-24T03:56:42;2.08;;;1.60;;
21862;SDS011;11096;51.338;12.524;2023-04-24T03:59:08;1.40;;;1.30;;
21862;SDS011;11096;51.338;12.524;2023-04-24T04:01:33;1.42;;;1.23;;
21862;SDS011;11096;51.338;12.524;2023-04-24T04:04:01;1.70;;;1.60;;
21862;SDS011;11096;51.338;12.524;2023-04-24T04:06:27;3.17;;;1.30;;
21862;SDS011;11096;51.338;12.524;2023-04-24T04:08:53;3.53;;;1.52;;
21862;SDS011;11096;51.338;12.524;2023-04-24T04:11:19;3.28;;;1.50;;
21862;SDS011;11096;51.338;12.524;2023-04-24T04:13:44;2.35;;;1.67;;
21862;SDS011;11096;51.338;12.524;2023-04-24T04:16:12;2.85;;;1.67;;
21862;SDS011;11096;51.338;12.524;2023-04-24T04:18:38;1.70;;;1.58;;
21862;SDS011;11096;51.338;12.524;2023-04-24T04:21:03;1.58;;;1.48;;
21862;SDS011;11096;51.338;12.524;2023-04-24T04:23:29;2.22;;;1.50;;
21862;SDS011;11096;51.338;12.524;2023-04-24T04:25:55;1.77;;;1.38;;
21862;SDS011;11096;51.338;12.524;2023-04-24T04:28:20;1.70;;;1.50;;
21862;SDS011;11096;51.338;12.524;2023-04-24T04:30:46;1.30;;;1.20;;
21862;SDS011;11096;51.338;12.524;2023-04-24T04:33:12;2.83;;;1.58;;
21862;SDS011;11096;51.338;12.524;2023-04-24T04:35:38;2.30;;;1.67;;
21862;SDS011;11096;51.338;12.524;2023-04-24T04:38:03;1.85;;;1.67;;
21862;SDS011;11096;51.338;12.524;2023-04-24T04:40:29;1.73;;;1.63;;
21862;SDS011;11096;51.338;12.524;2023-04-24T04:42:55;3.55;;;1.58;;
21862;SDS011;11096;51.338;12.524;2023-04-24T04:45:20;5.13;;;1.60;;
21862;SDS011;11096;51.338;12.524;2023-04-24T04:47:46;2.55;;;1.70;;
21862;SDS011;11096;51.338;12.524;2023-04-24T04:50:12;2.88;;;1.75;;
21862;SDS011;11096;51.338;12.524;2023-04-24T04:52:38;1.73;;;1.23;;
21862;SDS011;11096;51.338;12.524;2023-04-24T04:55:04;1.55;;;1.45;;
21862;SDS011;11096;51.338;12.524;2023-04-24T04:57:30;1.92;;;1.42;;
21862;SDS011;11096;51.338;12.524;2023-04-24T04:59:55;4.28;;;1.73;;
21862;SDS011;11096;51.338;12.524;2023-04-24T05:02:21;2.10;;;1.50;;
21862;SDS011;11096;51.338;12.524;2023-04-24T05:04:46;3.10;;;1.83;;
21862;SDS011;11096;51.338;12.524;2023-04-24T05:07:11;5.40;;;1.70;;
21862;SDS011;11096;51.338;12.524;2023-04-24T05:09:37;3.10;;;1.30;;
21862;SDS011;11096;51.338;12.524;2023-04-24T05:12:02;2.47;;;1.30;;
21862;SDS011;11096;51.338;12.524;2023-04-24T05:14:28;1.35;;;1.25;;
21862;SDS011;11096;51.338;12.524;2023-04-24T05:16:54;1.90;;;1.38;;
21862;SDS011;11096;51.338;12.524;2023-04-24T05:19:19;1.35;;;1.25;;
21862;SDS011;11096;51.338;12.524;2023-04-24T05:21:45;2.95;;;1.58;;
21862;SDS011;11096;51.338;12.524;2023-04-24T05:24:10;4.47;;;1.65;;
21862;SDS011;11096;51.338;12.524;2023-04-24T05:26:36;4.20;;;1.52;;
21862;SDS011;11096;51.338;12.524;2023-04-24T05:29:01;2.10;;;1.70;;
21862;SDS011;11096;51.338;12.524;2023-04-24T05:31:27;5.07;;;1.77;;
21862;SDS011;11096;51.338;12.524;2023-04-24T05:33:53;2.35;;;1.40;;
21862;SDS011;11096;51.338;12.524;2023-04-24T05:36:18;2.60;;;1.63;;
21862;SDS011;11096;51.338;12.524;2023-04-24T05:38:44;4.68;;;1.70;;
21862;SDS011;11096;51.338;12.524;2023-04-24T05:41:09;3.70;;;1.50;;
21862;SDS011;11096;51.338;12.524;2023-04-24T05:43:34;1.50;;;1.40;;
21862;SDS011;11096;51.338;12.524;2023-04-24T05:46:00;3.25;;;1.58;;
21862;SDS011;11096;51.338;12.524;2023-04-24T05:48:25;1.90;;;1.30;;
21862;SDS011;11096;51.338;12.524;2023-04-24T05:50:51;2.30;;;1.75;;
21862;SDS011;11096;51.338;12.524;2023-04-24T05:53:17;2.85;;;1.30;;
21862;SDS011;11096;51.338;12.524;2023-04-24T05:55:43;2.10;;;1.65;;
21862;SDS011;11096;51.338;12.524;2023-04-24T05:58:09;2.00;;;1.25;;
21862;SDS011;11096;51.338;12.524;2023-04-24T06:00:34;1.50;;;1.20;;
21862;SDS011;11096;51.338;12.524;2023-04-24T06:03:00;1.65;;;1.20;;
21862;SDS011;11096;51.338;12.524;2023-04-24T06:05:26;1.65;;;1.40;;
21862;SDS011;11096;51.338;12.524;2023-04-24T06:07:51;1.65;;;1.40;;
21862;SDS011;11096;51.338;12.524;2023-04-24T06:10:17;2.45;;;1.20;;
21862;SDS011;11096;51.338;12.524;2023-04-24T06:12:43;1.45;;;1.20;;
21862;SDS011;11096;51.338;12.524;2023-04-24T06:15:08;1.45;;;1.10;;
21862;SDS011;11096;51.338;12.524;2023-04-24T06:17:34;5.30;;;1.10;;
21862;SDS011;11096;51.338;12.524;2023-04-24T06:19:59;3.95;;;1.15;;
21862;SDS011;11096;51.338;12.524;2023-04-24T06:22:25;3.08;;;1.20;;
21862;SDS011;11096;51.338;12.524;2023-04-24T06:24:50;2.47;;;1.40;;
21862;SDS011;11096;51.338;12.524;2023-04-24T06:27:16;1.83;;;1.00;;
21862;SDS011;11096;51.338;12.524;2023-04-24T06:29:41;1.48;;;1.38;;
21862;SDS011;11096;51.338;12.524;2023-04-24T06:32:06;1.77;;;1.20;;
21862;SDS011;11096;51.338;12.524;2023-04-24T06:34:32;2.05;;;1.20;;
21862;SDS011;11096;51.338;12.524;2023-04-24T06:36:59;2.42;;;1.35;;
21862;SDS011;11096;51.338;12.524;2023-04-24T06:39:25;2.55;;;1.30;;
21862;SDS011;11096;51.338;12.524;2023-04-24T06:41:50;3.65;;;1.65;;
21862;SDS011;11096;51.338;12.524;2023-04-24T06:44:15;1.50;;;1.23;;
21862;SDS011;11096;51.338;12.524;2023-04-24T06:46:41;2.83;;;1.27;;
21862;SDS011;11096;51.338;12.524;2023-04-24T06:49:07;2.28;;;1.05;;
21862;SDS011;11096;51.338;12.524;2023-04-24T06:51:32;2.40;;;1.40;;
21862;SDS011;11096;51.338;12.524;2023-04-24T06:53:58;1.30;;;1.20;;
21862;SDS011;11096;51.338;12.524;2023-04-24T06:56:24;3.65;;;1.13;;
21862;SDS011;11096;51.338;12.524;2023-04-24T06:58:50;1.30;;;1.20;;
21862;SDS011;11096;51.338;12.524;2023-04-24T07:01:16;0.95;;;0.85;;
21862;SDS011;11096;51.338;12.524;2023-04-24T07:03:42;1.85;;;0.90;;
21862;SDS011;11096;51.338;12.524;2023-04-24T07:06:08;2.20;;;1.02;;
21862;SDS011;11096;51.338;12.524;2023-04-24T07:08:36;2.95;;;1.15;;
21862;SDS011;11096;51.338;12.524;2023-04-24T07:11:01;2.67;;;0.90;;
21862;SDS011;11096;51.338;12.524;2023-04-24T07:13:27;2.45;;;1.20;;
21862;SDS011;11096;51.338;12.524;2023-04-24T07:15:53;1.15;;;1.08;;
21862;SDS011;11096;51.338;12.524;2023-04-24T07:18:20;2.67;;;1.30;;
21862;SDS011;11096;51.338;12.524;2023-04-24T07:20:46;1.75;;;1.20;;
21862;SDS011;11096;51.338;12.524;2023-04-24T07:23:11;1.20;;;1.08;;
21862;SDS011;11096;51.338;12.524;2023-04-24T07:25:37;2.60;;;1.30;;
21862;SDS011;11096;51.338;12.524;2023-04-24T07:28:03;2.83;;;1.60;;
21862;SDS011;11096;51.338;12.524;2023-04-24T07:30:29;3.50;;;1.08;;
21862;SDS011;11096;51.338;12.524;2023-04-24T07:32:55;10.38;;;1.30;;
21862;SDS011;11096;51.338;12.524;2023-04-24T07:35:21;5.25;;;0.90;;
21862;SDS011;11096;51.338;12.524;2023-04-24T07:37:46;0.88;;;0.80;;
21862;SDS011;11096;51.338;12.524;2023-04-24T07:40:14;1.27;;;0.98;;
21862;SDS011;11096;51.338;12.524;2023-04-24T07:42:40;1.73;;;1.05;;
21862;SDS011;11096;51.338;12.524;2023-04-24T07:45:06;1.27;;;1.13;;
21862;SDS011;11096;51.338;12.524;2023-04-24T07:47:32;2.53;;;0.90;;
21862;SDS011;11096;51.338;12.524;2023-04-24T07:49:58;1.55;;;0.85;;
21862;SDS011;11096;51.338;12.524;2023-04-24T07:52:24;1.15;;;1.05;;
21862;SDS011;11096;51.338;12.524;2023-04-24T07:54:50;1.42;;;0.90;;
21862;SDS011;11096;51.338;12.524;2023-04-24T07:57:15;1.98;;;1.00;;
21862;SDS011;11096;51.338;12.524;2023-04-24T07:59:41;1.00;;;0.80;;
21862;SDS011;11096;51.338;12.524;2023-04-24T08:02:07;1.42;;;0.80;;
21862;SDS011;11096;51.338;12.524;2023-04-24T08:04:32;3.30;;;0.85;;
21862;SDS011;11096;51.338;12.524;2023-04-24T08:06:58;0.90;;;0.65;;
21862;SDS011;11096;51.338;12.524;2023-04-24T08:09:24;2.00;;;0.80;;
21862;SDS011;11096;51.338;12.524;2023-04-24T08:11:49;3.65;;;0.70;;
21862;SDS011;11096;51.338;12.524;2023-04-24T08:14:15;0.70;;;0.68;;
21862;SDS011;11096;51.338;12.524;2023-04-24T08:16:40;1.10;;;0.70;;
21862;SDS011;11096;51.338;12.524;2023-04-24T08:19:06;0.60;;;0.60;;
21862;SDS011;11096;51.338;12.524;2023-04-24T08:21:32;1.00;;;0.70;;
21862;SDS011;11096;51.338;12.524;2023-04-24T08:23:57;0.93;;;0.80;;
21862;SDS011;11096;51.338;12.524;2023-04-24T08:26:23;2.10;;;1.00;;
21862;SDS011;11096;51.338;12.524;2023-04-24T08:28:48;1.63;;;0.70;;
21862;SDS011;11096;51.338;12.524;2023-04-24T08:31:14;3.63;;;0.90;;
21862;SDS011;11096;51.338;12.524;2023-04-24T08:33:39;0.93;;;0.65;;
21862;SDS011;11096;51.338;12.524;2023-04-24T08:36:06;7.95;;;0.80;;
21862;SDS011;11096;51.338;12.524;2023-04-24T08:38:32;1.25;;;1.00;;
21862;SDS011;11096;51.338;12.524;2023-04-24T08:40:59;1.60;;;1.02;;
21862;SDS011;11096;51.338;12.524;2023-04-24T08:43:25;1.73;;;0.77;;
21862;SDS011;11096;51.338;12.524;2023-04-24T08:45:52;1.95;;;0.68;;
21862;SDS011;11096;51.338;12.524;2023-04-24T08:48:20;1.08;;;0.60;;
21862;SDS011;11096;51.338;12.524;2023-04-24T08:50:47;0.50;;;0.43;;
21862;SDS011;11096;51.338;12.524;2023-04-24T08:53:15;2.83;;;0.52;;
21862;SDS011;11096;51.338;12.524;2023-04-24T08:55:40;2.38;;;0.40;;
21862;SDS011;11096;51.338;12.524;2023-04-24T08:58:08;3.00;;;0.57;;
21862;SDS011;11096;51.338;12.524;2023-04-24T09:00:34;1.15;;;0.68;;
21862;SDS011;11096;51.338;12.524;2023-04-24T09:03:00;0.30;;;0.30;;
21862;SDS011;11096;51.338;12.524;2023-04-24T09:05:27;1.35;;;0.40;;
21862;SDS011;11096;51.338;12.524;2023-04-24T09:07:54;0.70;;;0.45;;
21862;SDS011;11096;51.338;12.524;2023-04-24T09:10:23;0.47;;;0.40;;
21862;SDS011;11096;51.338;12.524;2023-04-24T09:12:50;2.92;;;0.52;;
21862;SDS011;11096;51.338;12.524;2023-04-24T09:15:16;0.82;;;0.35;;
21862;SDS011;11096;51.338;12.524;2023-04-24T09:17:43;0.85;;;0.40;;
21862;SDS011;11096;51.338;12.524;2023-04-24T09:20:09;1.35;;;0.52;;
21862;SDS011;11096;51.338;12.524;2023-04-24T09:22:35;1.13;;;0.40;;
21862;SDS011;11096;51.338;12.524;2023-04-24T09:25:05;0.90;;;0.40;;
21862;SDS011;11096;51.338;12.524;2023-04-24T09:27:32;0.32;;;0.28;;
21862;SDS011;11096;51.338;12.524;2023-04-24T09:29:59;0.80;;;0.40;;
21862;SDS011;11096;51.338;12.524;2023-04-24T09:32:25;0.60;;;0.40;;
21862;SDS011;11096;51.338;12.524;2023-04-24T09:38:06;1.83;;;0.50;;
21862;SDS011;11096;51.338;12.524;2023-04-24T09:40:25;0.50;;;0.30;;
21862;SDS011;11096;51.338;12.524;2023-04-24T09:42:51;0.25;;;0.25;;
21862;SDS011;11096;51.338;12.524;2023-04-24T09:45:18;0.82;;;0.38;;
21862;SDS011;11096;51.338;12.524;2023-04-24T09:47:45;1.00;;;0.60;;
21862;SDS011;11096;51.338;12.524;2023-04-24T09:52:41;1.00;;;0.45;;
21862;SDS011;11096;51.338;12.524;2023-04-24T09:55:20;0.93;;;0.55;;
21862;SDS011;11096;51.338;12.524;2023-04-24T09:57:54;2.28;;;0.40;;
21862;SDS011;11096;51.338;12.524;2023-04-24T10:00:24;1.48;;;0.57;;
21862;SDS011;11096;51.338;12.524;2023-04-24T10:02:57;0.75;;;0.55;;
21862;SDS011;11096;51.338;12.524;2023-04-24T10:05:34;1.52;;;0.40;;
21862;SDS011;11096;51.338;12.524;2023-04-24T10:08:02;0.98;;;0.50;;
21862;SDS011;11096;51.338;12.524;2023-04-24T10:10:33;1.23;;;0.60;;
21862;SDS011;11096;51.338;12.524;2023-04-24T10:13:01;2.22;;;0.40;;
21862;SDS011;11096;51.338;12.524;2023-04-24T10:15:27;1.65;;;0.60;;
21862;SDS011;11096;51.338;12.524;2023-04-24T10:17:53;2.95;;;0.40;;
21862;SDS011;11096;51.338;12.524;2023-04-24T10:20:22;1.02;;;0.60;;
21862;SDS011;11096;51.338;12.524;2023-04-24T10:22:50;1.35;;;0.50;;
21862;SDS011;11096;51.338;12.524;2023-04-24T10:25:20;1.40;;;0.50;;
21862;SDS011;11096;51.338;12.524;2023-04-24T10:27:47;1.48;;;0.50;;
21862;SDS011;11096;51.338;12.524;2023-04-24T10:30:14;0.98;;;0.40;;
21862;SDS011;11096;51.338;12.524;2023-04-24T10:32:40;0.85;;;0.50;;
21862;SDS011;11096;51.338;12.524;2023-04-24T10:35:06;0.82;;;0.65;;
21862;SDS011;11096;51.338;12.524;2023-04-24T10:37:48;0.73;;;0.50;;
21862;SDS011;11096;51.338;12.524;2023-04-24T10:40:19;2.35;;;0.70;;
21862;SDS011;11096;51.338;12.524;2023-04-24T10:42:51;1.00;;;0.70;;
21862;SDS011;11096;51.338;12.524;2023-04-24T10:45:19;4.03;;;0.60;;
21862;SDS011;11096;51.338;12.524;2023-04-24T10:47:53;1.77;;;0.40;;
21862;SDS011;11096;51.338;12.524;2023-04-24T10:50:30;0.77;;;0.32;;
21862;SDS011;11096;51.338;12.524;2023-04-24T10:53:17;1.60;;;0.40;;
21862;SDS011;11096;51.338;12.524;2023-04-24T10:55:44;1.42;;;0.50;;
21862;SDS011;11096;51.338;12.524;2023-04-24T10:58:10;0.85;;;0.50;;
21862;SDS011;11096;51.338;12.524;2023-04-24T11:00:37;4.95;;;0.40;;
21862;SDS011;11096;51.338;12.524;2023-04-24T11:03:22;0.43;;;0.40;;
21862;SDS011;11096;51.338;12.524;2023-04-24T11:08:29;1.70;;;0.40;;
21862;SDS011;11096;51.338;12.524;2023-04-24T11:11:00;1.45;;;0.40;;
21862;SDS011;11096;51.338;12.524;2023-04-24T11:19:08;0.50;;;0.40;;
21862;SDS011;11096;51.338;12.524;2023-04-24T11:21:42;0.50;;;0.40;;
21862;SDS011;11096;51.338;12.524;2023-04-24T11:30:02;0.90;;;0.40;;
21862;SDS011;11096;51.338;12.524;2023-04-24T11:32:29;0.57;;;0.40;;
21862;SDS011;11096;51.338;12.524;2023-04-24T11:34:59;1.33;;;0.82;;
21862;SDS011;11096;51.338;12.524;2023-04-24T11:37:33;1.10;;;0.50;;
21862;SDS011;11096;51.338;12.524;2023-04-24T11:39:59;1.98;;;0.45;;
21862;SDS011;11096;51.338;12.524;2023-04-24T11:42:24;2.08;;;0.63;;
21862;SDS011;11096;51.338;12.524;2023-04-24T11:44:54;1.35;;;0.88;;
21862;SDS011;11096;51.338;12.524;2023-04-24T11:47:27;4.88;;;0.40;;
21862;SDS011;11096;51.338;12.524;2023-04-24T11:49:53;0.60;;;0.40;;
21862;SDS011;11096;51.338;12.524;2023-04-24T11:52:19;0.65;;;0.52;;
21862;SDS011;11096;51.338;12.524;2023-04-24T11:54:48;0.32;;;0.30;;
21862;SDS011;11096;51.338;12.524;2023-04-24T11:57:15;6.25;;;0.90;;
21862;SDS011;11096;51.338;12.524;2023-04-24T11:59:41;0.90;;;0.40;;
21862;SDS011;11096;51.338;12.524;2023-04-24T12:02:06;3.35;;;0.60;;
21862;SDS011;11096;51.338;12.524;2023-04-24T12:04:41;0.40;;;0.30;;
21862;SDS011;11096;51.338;12.524;2023-04-24T12:07:06;0.40;;;0.30;;
21862;SDS011;11096;51.338;12.524;2023-04-24T12:09:40;0.82;;;0.52;;
21862;SDS011;11096;51.338;12.524;2023-04-24T12:12:10;1.42;;;0.40;;
21862;SDS011;11096;51.338;12.524;2023-04-24T12:14:44;1.23;;;0.60;;
21862;SDS011;11096;51.338;12.524;2023-04-24T12:17:12;0.73;;;0.40;;
21862;SDS011;11096;51.338;12.524;2023-04-24T12:19:37;0.40;;;0.40;;
21862;SDS011;11096;51.338;12.524;2023-04-24T12:22:03;1.40;;;0.63;;
21862;SDS011;11096;51.338;12.524;2023-04-24T12:24:30;0.40;;;0.30;;
21862;SDS011;11096;51.338;12.524;2023-04-24T12:26:56;2.15;;;0.55;;
21862;SDS011;11096;51.338;12.524;2023-04-24T12:29:23;1.73;;;0.43;;
21862;SDS011;11096;51.338;12.524;2023-04-24T12:31:49;1.80;;;0.30;;
21862;SDS011;11096;51.338;12.524;2023-04-24T12:34:21;0.50;;;0.32;;
21862;SDS011;11096;51.338;12.524;2023-04-24T12:36:48;0.32;;;0.28;;
21862;SDS011;11096;51.338;12.524;2023-04-24T12:39:17;3.63;;;1.00;;
21862;SDS011;11096;51.338;12.524;2023-04-24T12:41:50;0.57;;;0.40;;
21862;SDS011;11096;51.338;12.524;2023-04-24T12:44:28;3.05;;;0.50;;
21862;SDS011;11096;51.338;12.524;2023-04-24T12:46:54;4.93;;;0.88;;
21862;SDS011;11096;51.338;12.524;2023-04-24T12:49:19;0.93;;;0.50;;
21862;SDS011;11096;51.338;12.524;2023-04-24T12:51:45;1.63;;;0.68;;
21862;SDS011;11096;51.338;12.524;2023-04-24T12:54:10;1.10;;;0.52;;
21862;SDS011;11096;51.338;12.524;2023-04-24T12:56:36;0.80;;;0.57;;
21862;SDS011;11096;51.338;12.524;2023-04-24T12:59:04;0.70;;;0.70;;
21862;SDS011;11096;51.338;12.524;2023-04-24T13:01:30;0.88;;;0.50;;
21862;SDS011;11096;51.338;12.524;2023-04-24T13:03:55;1.15;;;0.63;;
21862;SDS011;11096;51.338;12.524;2023-04-24T13:06:21;1.55;;;0.70;;
21862;SDS011;11096;51.338;12.524;2023-04-24T13:08:46;1.42;;;0.68;;
21862;SDS011;11096;51.338;12.524;2023-04-24T13:11:12;0.50;;;0.47;;
21862;SDS011;11096;51.338;12.524;2023-04-24T13:13:38;1.13;;;0.77;;
21862;SDS011;11096;51.338;12.524;2023-04-24T13:16:03;1.60;;;0.70;;
21862;SDS011;11096;51.338;12.524;2023-04-24T13:18:29;0.80;;;0.80;;
21862;SDS011;11096;51.338;12.524;2023-04-24T13:20:55;1.15;;;0.90;;
21862;SDS011;11096;51.338;12.524;2023-04-24T13:23:20;0.65;;;0.60;;
21862;SDS011;11096;51.338;12.524;2023-04-24T13:25:46;1.27;;;0.80;;
21862;SDS011;11096;51.338;12.524;2023-04-24T13:28:12;2.30;;;0.70;;
21862;SDS011;11096;51.338;12.524;2023-04-24T13:30:37;1.30;;;0.80;;
21862;SDS011;11096;51.338;12.524;2023-04-24T13:33:03;1.58;;;0.70;;
21862;SDS011;11096;51.338;12.524;2023-04-24T13:35:28;0.63;;;0.63;;
21862;SDS011;11096;51.338;12.524;2023-04-24T13:37:54;0.63;;;0.60;;
21862;SDS011;11096;51.338;12.524;2023-04-24T13:40:19;2.28;;;0.70;;
21862;SDS011;11096;51.338;12.524;2023-04-24T13:42:45;2.45;;;1.13;;
21862;SDS011;11096;51.338;12.524;2023-04-24T13:45:10;1.77;;;0.57;;
21862;SDS011;11096;51.338;12.524;2023-04-24T13:47:36;3.15;;;0.85;;
21862;SDS011;11096;51.338;12.524;2023-04-24T13:50:01;0.90;;;0.80;;
21862;SDS011;11096;51.338;12.524;2023-04-24T13:52:27;3.03;;;0.95;;
21862;SDS011;11096;51.338;12.524;2023-04-24T13:54:53;1.00;;;0.90;;
21862;SDS011;11096;51.338;12.524;2023-04-24T13:57:18;1.60;;;0.90;;
21862;SDS011;11096;51.338;12.524;2023-04-24T13:59:44;1.02;;;0.80;;
21862;SDS011;11096;51.338;12.524;2023-04-24T14:02:10;0.98;;;0.88;;
21862;SDS011;11096;51.338;12.524;2023-04-24T14:04:35;3.65;;;0.75;;
21862;SDS011;11096;51.338;12.524;2023-04-24T14:07:01;1.48;;;0.80;;
21862;SDS011;11096;51.338;12.524;2023-04-24T14:09:26;1.27;;;0.80;;
21862;SDS011;11096;51.338;12.524;2023-04-24T14:11:52;1.63;;;0.77;;
21862;SDS011;11096;51.338;12.524;2023-04-24T14:14:17;1.40;;;0.80;;
21862;SDS011;11096;51.338;12.524;2023-04-24T14:16:43;0.98;;;0.80;;
21862;SDS011;11096;51.338;12.524;2023-04-24T14:19:08;0.60;;;0.60;;
21862;SDS011;11096;51.338;12.524;2023-04-24T14:21:33;0.50;;;0.50;;
21862;SDS011;11096;51.338;12.524;2023-04-24T14:23:59;1.00;;;0.82;;
21862;SDS011;11096;51.338;12.524;2023-04-24T14:26:25;0.60;;;0.47;;
21862;SDS011;11096;51.338;12.524;2023-04-24T14:28:50;0.80;;;0.75;;
21862;SDS011;11096;51.338;12.524;2023-04-24T14:31:17;1.13;;;0.63;;
21862;SDS011;11096;51.338;12.524;2023-04-24T14:33:43;1.45;;;0.60;;
21862;SDS011;11096;51.338;12.524;2023-04-24T14:36:08;0.73;;;0.40;;
21862;SDS011;11096;51.338;12.524;2023-04-24T14:38:34;0.52;;;0.52;;
21862;SDS011;11096;51.338;12.524;2023-04-24T14:40:59;0.68;;;0.60;;
21862;SDS011;11096;51.338;12.524;2023-04-24T14:43:26;2.35;;;0.70;;
21862;SDS011;11096;51.338;12.524;2023-04-24T14:45:51;0.63;;;0.63;;
21862;SDS011;11096;51.338;12.524;2023-04-24T14:48:17;1.23;;;0.75;;